LELCLEMG

Guest
Details From LELC - Murcia San Javier
To LEMG - Malaga
Flight Number -
Tags Routegen Generated
Created
Modified
Stats Distance 191 nm / 355 km
Max Altitude 1,100 ft / 335 m
Waypoints 9
Social Downloads 1
Likes 0
Share VATSIM

Download

Looking for another format? Having issues loading an existing format? Contact us
Advertisement - Login to hide

Notes

Departing runway 22 LELC. Arriving runway 13 LEMG.

Route

LELC +37.72_+000.89 +37.69_+000.95 +37.32_-002.11 +36.61_-004.21 +36.59_-004.28 +36.60_-004.35 +36.62_-004.42 LEMG

ID Type Via Altitude Latitude Longitude Leg Dist Tot Dist Heading (true) Name
O LELC APT - 0 ft / 0 m 37.76772˚ -0.82156˚ - 0 nm - -
+37.72_+000.89 LATLON - 1,100 ft / 335 m 37.71711˚ -0.88697˚ 4 nm 4 nm 226° / 226° -
+37.69_+000.95 LATLON - 1,100 ft / 335 m 37.69322˚ -0.95362˚ 3 nm 7 nm 246° / 246° -
+37.32_-002.11 LATLON - 1,100 ft / 335 m 37.32217˚ -2.10967˚ 59 nm 67 nm 248° / 248° -
+36.61_-004.21 LATLON - 1,100 ft / 335 m 36.61225˚ -4.21096˚ 109 nm 176 nm 248° / 246° -
+36.59_-004.28 LATLON - 1,100 ft / 335 m 36.59409˚ -4.27943˚ 3 nm 180 nm 252° / 252° -
+36.60_-004.35 LATLON - 1,100 ft / 335 m 36.59583˚ -4.35151˚ 3 nm 183 nm 272° / 272° -
+36.62_-004.42 LATLON - 1,100 ft / 335 m 36.61725˚ -4.41850˚ 3 nm 187 nm 292° / 292° -
O LEMG APT - 0 ft / 0 m 36.66541˚ -4.48582˚ 4 nm 191 nm 312° / 312° -

Altitude Profile

Advertisement - Login to hide

Weather


0- 5 10 15 20 25 30 35+ Temperature / ° C

Clouds and Precipitation
Forecast for 2017-12-12 18:00 UTC. Updated an hour ago

Ground ~20,000 ft ~40,000 ft Winds

LELC

Details ICAO LELC (MJV)
Name Murcia San Javier
Region Spain
Timezone Europe/Madrid (UTC+1.0)
Stats Elevation 11 ft / 3 m (AMSL)
Location 37.780256° -0.812257°
Runways 3
Magnetic Variation 0.119° E

METAR

LELC 121600Z 31008KT CAVOK 15/M01 Q1017 NOSIG

Decode

TAF

TAF AMD LELC 121402Z 1214/1312 34009KT 9999 SCT030 TX15/1214Z TN05/1307Z= TAF LFOC 121400Z 1215/1315 23010KT CAVOK BECMG 1221/1224 BKN010 BECMG 1303/1305 19016G27KT 4000 -RA SCT008 BKN013 TEMPO 1307/1313 3000 RA BKN008

Decode

Departure Runways

ID Width Length Bearing (true) Bearing (mag) Surface Threshold Offset Overrun Length
05L 164 ft / 50 m 6,553 ft / 1,997 m 45.62° 45.50° Asphalt 656 ft / 200 m 0 ft / 0 m
05R 148 ft / 45 m 7,553 ft / 2,302 m 45.63° 45.51° Asphalt 0 ft / 0 m 656 ft / 200 m
14 197 ft / 60 m 2,657 ft / 810 m 136.05° 135.93° Grass 0 ft / 0 m 0 ft / 0 m
23L 148 ft / 45 m 7,553 ft / 2,302 m 225.65° 225.53° Asphalt 0 ft / 0 m 656 ft / 200 m
23R 164 ft / 50 m 6,553 ft / 1,997 m 225.63° 225.51° Asphalt 656 ft / 200 m 0 ft / 0 m
32 197 ft / 60 m 2,657 ft / 810 m 316.05° 315.93° Grass 0 ft / 0 m 0 ft / 0 m

LEMG

Details ICAO LEMG (AGP)
Name Malaga
Region Spain
Timezone Europe/Madrid (UTC+1.0)
Stats Elevation 52 ft / 16 m (AMSL)
Location 36.679780° -4.495899°
Runways 2
Magnetic Variation 0.877° W

METAR

LEMG 121600Z 31009KT CAVOK 15/01 Q1018 NOSIG

Decode

TAF

TAF LEMG 121100Z 1212/1312 32010KT 9999 SCT030 TX16/1215Z TN07/1308Z

Decode

Destination Runways

ID Width Length Bearing (true) Bearing (mag) Surface Threshold Offset Overrun Length
12 148 ft / 45 m 10,057 ft / 3,065 m 117.76° 118.64° Asphalt 0 ft / 0 m 650 ft / 198 m
13 148 ft / 45 m 10,509 ft / 3,203 m 131.69° 132.57° Asphalt 0 ft / 0 m 246 ft / 75 m
30 148 ft / 45 m 10,057 ft / 3,065 m 297.78° 298.66° Asphalt 1,115 ft / 340 m 466 ft / 142 m
31 148 ft / 45 m 10,509 ft / 3,203 m 311.70° 312.58° Asphalt 0 ft / 0 m 246 ft / 75 m

Approach Navaids

Runway Type Ident Frequency Range Bearing (true) Bearing (mag) Slope Elevation
12 Localiser IMG 110.55 MHz 15 nm / 28 km 117.70° 118.58° - 52 ft / 16 m (AMSL)
12 Glidescope IMG 110.55 MHz 8 nm / 15 km 0.00° 0.88° 3.00° 52 ft / 16 m (AMSL)
12 DME IMG 110.55 MHz 18 nm / 33 km - - - 52 ft / 16 m (AMSL)
13 Localiser GMM 109.50 MHz 18 nm / 33 km 131.70° 132.58° - 52 ft / 16 m (AMSL)
13 Glidescope GMM 109.50 MHz 10 nm / 19 km 131.69° 132.57° 3.20° 69 ft / 21 m (AMSL)
13 DME GMM 109.50 MHz 18 nm / 33 km - - - 69 ft / 21 m (AMSL)
31 Localiser GAA 109.90 MHz 18 nm / 33 km 311.68° 312.56° - 52 ft / 16 m (AMSL)
31 Glidescope GAA 109.90 MHz 10 nm / 19 km 311.69° 312.57° 3.00° 56 ft / 17 m (AMSL)
31 DME GAA 109.90 MHz 18 nm / 33 km - - - 56 ft / 17 m (AMSL)

Popular Alternatives